Time;durP1;ratioP1;P1;durP2;ratioP2;P2;SDS_P1;SDS_P2;PMS_P1;PMS_P2;Temp;Humidity;BMP_temperature;BMP_pressure;BME280_temperature;BME280_humidity;BME280_pressure;Samples;Min_cycle;Max_cycle;Signal;HPM_P1;HPM_P2
2021/07/23 00:01:39;;;;;;;4.73;2.90;;;;;;;21.50;52.73;100925.28;5073655;28;20228;-71
2021/07/23 00:04:07;;;;;;;5.77;2.80;;;;;;;21.46;52.67;100928.53;5069650;28;20266;-71
2021/07/23 00:06:35;;;;;;;4.13;2.70;;;;;;;21.32;52.63;100903.56;5076635;28;20201;-71
2021/07/23 00:09:03;;;;;;;4.17;2.80;;;;;;;21.43;52.50;100917.91;5084737;28;20192;-72
2021/07/23 00:11:32;;;;;;;2.97;2.43;;;;;;;21.44;52.55;100933.31;5089615;28;20216;-71
2021/07/23 00:14:01;;;;;;;3.90;2.77;;;;;;;21.48;52.35;100931.94;5088344;28;20212;-71
2021/07/23 00:16:29;;;;;;;5.40;2.87;;;;;;;21.49;51.90;100928.19;5085374;28;20200;-72
2021/07/23 00:18:57;;;;;;;3.67;2.10;;;;;;;21.46;51.82;100934.00;5079638;28;20204;-71
2021/07/23 00:21:25;;;;;;;2.43;2.23;;;;;;;21.33;52.58;100918.09;5088697;28;20233;-71
2021/07/23 00:23:53;;;;;;;4.13;2.50;;;;;;;21.39;52.37;100933.81;5078469;28;20681;-71
2021/07/23 00:26:21;;;;;;;3.57;2.40;;;;;;;21.27;52.44;100913.31;5073596;28;20201;-71
2021/07/23 00:28:51;;;;;;;4.50;2.50;;;;;;;21.37;51.79;100933.97;5077007;28;20303;-71
2021/07/23 00:31:19;;;;;;;6.90;2.53;;;;;;;21.37;52.14;100935.84;5076500;28;20223;-72
2021/07/23 00:33:48;;;;;;;4.93;2.50;;;;;;;21.38;51.77;100937.56;5074836;28;20239;-71
2021/07/23 00:36:16;;;;;;;5.90;2.50;;;;;;;21.21;52.27;100924.88;5088783;28;20288;-72
2021/07/23 00:38:44;;;;;;;4.07;2.53;;;;;;;21.21;52.67;100938.53;5073292;28;20216;-72
2021/07/23 00:41:12;;;;;;;4.93;2.43;;;;;;;21.21;52.86;100942.13;5080586;28;20197;-72
2021/07/23 00:43:40;;;;;;;6.77;2.57;;;;;;;21.24;52.33;100944.56;5088010;28;20638;-72
2021/07/23 00:46:11;;;;;;;4.03;2.33;;;;;;;20.99;53.33;100942.75;5080280;28;20207;-72
2021/07/23 00:48:39;;;;;;;4.47;2.90;;;;;;;21.05;52.54;100942.06;5076525;28;20723;-72
2021/07/23 00:51:09;;;;;;;4.43;2.70;;;;;;;21.04;52.91;100943.09;5074061;28;20205;-72
2021/07/23 00:53:38;;;;;;;4.13;2.53;;;;;;;20.52;52.52;100855.09;5078815;28;20197;-72
2021/07/23 00:56:07;;;;;;;3.70;2.83;;;;;;;21.02;53.67;100947.88;5087601;28;20200;-72
2021/07/23 00:58:36;;;;;;;2.80;2.13;;;;;;;21.04;52.85;100956.75;5086054;28;20817;-72
2021/07/23 01:01:04;;;;;;;4.53;2.67;;;;;;;21.05;52.41;100953.00;5071918;28;20204;-72
2021/07/23 01:03:36;;;;;;;6.20;2.47;;;;;;;21.04;52.55;100951.28;5087864;28;20622;-72
2021/07/23 01:06:07;;;;;;;3.53;2.63;;;;;;;21.02;52.96;100950.59;5073782;28;20204;-72
2021/07/23 01:08:35;;;;;;;3.87;2.70;;;;;;;20.98;52.51;100958.28;5091216;28;20223;-72
2021/07/23 01:11:04;;;;;;;5.23;2.60;;;;;;;20.93;53.03;100959.81;5107765;28;20299;-72
2021/07/23 01:13:49;;;;;;;4.40;2.60;;;;;;;20.87;52.84;100963.22;5090459;28;20224;-72
2021/07/23 01:16:18;;;;;;;3.87;2.57;;;;;;;20.87;53.09;100966.78;5085072;28;20955;-72
2021/07/23 01:18:48;;;;;;;5.30;2.47;;;;;;;20.67;52.87;100933.44;5073547;28;20581;-72
2021/07/23 01:21:18;;;;;;;4.60;3.07;;;;;;;20.77;53.06;100961.44;5083538;28;20239;-72
2021/07/23 01:23:49;;;;;;;5.90;2.60;;;;;;;20.76;53.57;100970.66;5088296;28;20212;-73
2021/07/23 01:26:36;;;;;;;5.83;2.70;;;;;;;20.61;53.89;100966.00;5087058;28;20223;-72
2021/07/23 01:29:06;;;;;;;8.37;3.03;;;;;;;20.57;54.42;100976.38;5075561;28;20376;-72
2021/07/23 01:31:35;;;;;;;5.10;3.13;;;;;;;20.46;54.46;100972.03;5076812;28;20256;-64
2021/07/23 01:34:04;;;;;;;6.33;2.80;;;;;;;20.44;54.68;100975.97;5074117;28;20209;-72
2021/07/23 01:36:33;;;;;;;5.10;2.90;;;;;;;20.42;54.14;100991.63;5090115;28;20232;-72
2021/07/23 01:39:03;;;;;;;5.70;2.40;;;;;;;20.20;54.50;100964.88;5074769;28;20194;-72
2021/07/23 01:41:34;;;;;;;6.67;2.73;;;;;;;20.00;54.96;100940.56;5104736;28;20200;-72
2021/07/23 01:44:03;;;;;;;4.30;2.50;;;;;;;20.27;54.53;100976.88;5077670;28;20245;-73
2021/07/23 01:46:31;;;;;;;5.67;3.00;;;;;;;20.29;54.50;100994.78;5084251;28;20199;-73
2021/07/23 01:49:11;;;;;;;7.63;3.00;;;;;;;20.25;54.87;100998.84;5077175;28;20714;-73
2021/07/23 01:51:41;;;;;;;4.93;3.00;;;;;;;20.25;54.19;100987.09;5078285;28;20751;-72
2021/07/23 01:54:39;;;;;;;5.17;2.90;;;;;;;20.24;54.23;100990.84;5070348;28;20209;-65
2021/07/23 01:57:08;;;;;;;4.50;2.37;;;;;;;20.26;53.62;100996.97;5089589;28;20208;-66
2021/07/23 01:59:38;;;;;;;5.00;2.87;;;;;;;20.22;54.28;101003.78;5075802;28;20215;-66
2021/07/23 02:02:06;;;;;;;5.70;2.83;;;;;;;20.16;54.09;100997.06;5082489;28;20295;-66
2021/07/23 02:04:41;;;;;;;4.97;2.87;;;;;;;20.11;54.07;100999.41;5082783;28;20581;-66
2021/07/23 02:07:10;;;;;;;4.93;2.80;;;;;;;20.09;54.75;100994.13;5088992;28;20720;-72
2021/07/23 02:09:41;;;;;;;5.67;2.47;;;;;;;20.08;54.40;101002.47;5089080;28;20209;-65
2021/07/23 02:12:11;;;;;;;6.50;2.70;;;;;;;19.90;54.97;100977.97;5090368;28;20277;-65
2021/07/23 02:15:00;;;;;;;5.03;2.73;;;;;;;19.98;55.21;100996.25;5082244;28;20319;-65
2021/07/23 02:17:30;;;;;;;3.67;2.63;;;;;;;19.91;55.46;100989.75;5091147;28;20212;-65
2021/07/23 02:19:58;;;;;;;4.00;2.50;;;;;;;19.88;56.11;101007.25;5087000;28;20676;-66
2021/07/23 02:22:32;;;;;;;5.47;2.70;;;;;;;19.82;55.74;101002.44;5077290;28;20225;-65
2021/07/23 02:25:02;;;;;;;5.00;2.80;;;;;;;19.82;56.18;101018.78;5083000;28;20488;-65
2021/07/23 02:27:34;;;;;;;4.93;2.83;;;;;;;19.79;55.39;101014.50;5088823;28;20220;-65
2021/07/23 02:30:04;;;;;;;4.17;2.50;;;;;;;19.74;55.94;101014.13;5089086;28;20200;-72
2021/07/23 02:32:41;;;;;;;6.57;2.90;;;;;;;19.76;56.02;101016.69;5090073;28;20228;-72
2021/07/23 02:35:10;;;;;;;3.57;2.43;;;;;;;19.55;56.67;101000.66;5078144;28;20685;-72
2021/07/23 02:37:59;;;;;;;4.80;2.40;;;;;;;19.37;56.65;100988.88;5072555;28;20467;-72
2021/07/23 02:40:30;;;;;;;3.73;2.80;;;;;;;19.47;58.21;101031.38;5086469;28;20253;-72
2021/07/23 02:43:01;;;;;;;3.90;2.63;;;;;;;19.35;58.11;101020.84;5090413;28;20921;-71
2021/07/23 02:45:33;;;;;;;3.43;2.60;;;;;;;19.35;58.31;101046.22;5082157;28;20208;-72
2021/07/23 02:48:03;;;;;;;4.10;2.80;;;;;;;19.28;58.42;101033.34;5089815;28;20546;-71
2021/07/23 02:50:31;;;;;;;5.47;2.73;;;;;;;19.28;58.62;101044.25;5089718;28;20729;-65
2021/07/23 02:52:59;;;;;;;5.03;2.70;;;;;;;19.25;58.29;101037.25;5087556;28;20751;-65
2021/07/23 02:55:35;;;;;;;5.80;2.60;;;;;;;19.22;59.17;101040.28;5088181;28;20461;-65
2021/07/23 02:58:04;;;;;;;5.43;2.73;;;;;;;19.19;58.49;101038.72;5100523;28;20212;-65
2021/07/23 03:00:33;;;;;;;4.50;2.97;;;;;;;19.29;59.91;101052.28;5077891;28;20197;-65
2021/07/23 03:03:04;;;;;;;6.83;2.80;;;;;;;19.34;61.79;101047.25;5089214;28;20193;-65
2021/07/23 03:05:35;;;;;;;5.67;2.73;;;;;;;19.46;61.14;101046.00;5079311;28;20193;-65
2021/07/23 03:08:09;;;;;;;6.40;3.23;;;;;;;19.60;61.55;101052.84;5081193;28;20678;-65
2021/07/23 03:10:47;;;;;;;3.73;2.53;;;;;;;19.82;60.96;101051.50;5080205;28;20207;-65
2021/07/23 03:13:17;;;;;;;4.43;2.70;;;;;;;19.81;62.27;101060.69;5079622;28;20630;-65
2021/07/23 03:15:45;;;;;;;4.87;2.37;;;;;;;19.78;61.75;101050.09;5093470;28;20240;-65
2021/07/23 03:18:18;;;;;;;4.90;2.73;;;;;;;19.86;61.32;101063.78;5084905;28;20203;-65
2021/07/23 03:20:46;;;;;;;4.67;2.33;;;;;;;19.73;62.10;101058.75;5082775;28;20204;-65
2021/07/23 03:23:15;;;;;;;3.70;2.53;;;;;;;19.66;61.68;101043.19;5074405;28;20266;-65
2021/07/23 03:25:49;;;;;;;3.87;2.37;;;;;;;19.75;61.59;101064.03;5080446;28;20639;-65
2021/07/23 03:28:25;;;;;;;3.27;2.30;;;;;;;19.74;62.20;101073.22;5081592;28;20669;-65
2021/07/23 03:31:01;;;;;;;3.13;2.40;;;;;;;19.68;62.01;101071.13;5095148;28;20205;-65
2021/07/23 03:33:34;;;;;;;3.80;2.30;;;;;;;19.69;61.86;101070.97;5089604;28;20304;-65
2021/07/23 03:36:03;;;;;;;5.97;2.23;;;;;;;19.66;61.99;101078.59;5075253;28;20201;-65
2021/07/23 03:38:32;;;;;;;2.70;2.20;;;;;;;19.57;62.32;101057.72;5073675;28;20224;-66
2021/07/23 03:41:02;;;;;;;3.43;2.70;;;;;;;19.62;62.17;101078.06;5072049;28;20677;-65
2021/07/23 03:43:30;;;;;;;4.30;2.33;;;;;;;19.58;62.57;101087.53;5095143;28;20254;-65
2021/07/23 03:46:05;;;;;;;3.13;2.50;;;;;;;19.59;62.40;101083.78;5079552;28;20693;-65
2021/07/23 03:48:39;;;;;;;2.70;2.30;;;;;;;19.63;61.78;101089.81;5073802;28;20215;-71
2021/07/23 03:51:11;;;;;;;3.70;2.13;;;;;;;19.44;62.11;101058.91;5096088;28;20207;-71
2021/07/23 03:53:41;;;;;;;3.63;2.07;;;;;;;19.51;62.59;101087.25;5087950;28;20217;-71
2021/07/23 03:56:24;;;;;;;2.47;2.07;;;;;;;19.27;62.95;101051.56;5084920;28;20254;-72
2021/07/23 03:58:52;;;;;;;3.53;2.40;;;;;;;19.48;62.94;101084.84;5083869;28;20303;-72
2021/07/23 04:01:31;;;;;;;2.90;2.37;;;;;;;19.53;63.14;101079.81;5085517;28;20193;-72
2021/07/23 04:04:00;;;;;;;5.63;2.43;;;;;;;19.42;63.42;101082.72;5080999;28;20202;-72
2021/07/23 04:06:28;;;;;;;3.60;2.20;;;;;;;19.47;63.65;101088.56;5076638;28;20292;-72
2021/07/23 04:08:58;;;;;;;2.83;2.20;;;;;;;19.60;62.60;101085.53;5073997;28;20209;-72
2021/07/23 04:11:34;;;;;;;3.17;1.97;;;;;;;19.60;63.86;101090.13;5087961;28;20207;-72
2021/07/23 04:14:08;;;;;;;4.63;2.13;;;;;;;19.56;63.21;101091.41;5088069;28;20298;-72
2021/07/23 04:16:39;;;;;;;2.57;2.17;;;;;;;19.51;63.29;101091.84;5087779;28;20201;-71
2021/07/23 04:19:07;;;;;;;3.77;2.10;;;;;;;19.56;63.53;101097.72;5082563;28;20208;-71
2021/07/23 04:21:51;;;;;;;2.63;2.17;;;;;;;19.50;62.89;101082.81;5085440;28;20232;-71
2021/07/23 04:24:45;;;;;;;4.23;2.03;;;;;;;19.40;63.34;101079.31;5087001;28;20257;-72
2021/07/23 04:27:16;;;;;;;4.70;2.17;;;;;;;19.46;63.49;101096.91;5088211;28;20250;-71
2021/07/23 04:30:10;;;;;;;3.10;2.13;;;;;;;19.47;63.81;101107.66;5088628;28;20219;-72
2021/07/23 04:33:04;;;;;;;5.83;2.20;;;;;;;19.46;64.10;101105.94;5089649;28;20211;-71
2021/07/23 04:35:32;;;;;;;3.57;2.33;;;;;;;19.57;62.65;101106.75;5086774;28;20257;-71
2021/07/23 04:38:00;;;;;;;3.97;2.10;;;;;;;19.41;63.31;101108.25;5086060;28;20630;-70
2021/07/23 04:40:39;;;;;;;4.33;2.27;;;;;;;19.53;62.95;101112.50;5088008;28;20724;-70
2021/07/23 04:43:15;;;;;;;4.17;2.30;;;;;;;19.62;62.56;101118.06;5076536;28;20696;-70
2021/07/23 04:45:44;;;;;;;2.50;2.10;;;;;;;19.60;61.76;101120.09;5082101;28;20201;-70
2021/07/23 04:48:12;;;;;;;3.20;2.00;;;;;;;19.68;60.97;101114.72;5079379;28;20244;-70
2021/07/23 04:51:01;;;;;;;2.17;1.90;;;;;;;19.74;60.04;101122.28;5081919;28;20552;-71
2021/07/23 04:53:49;;;;;;;2.40;1.83;;;;;;;19.80;59.86;101113.47;5089672;28;20596;-71
2021/07/23 04:56:35;;;;;;;6.87;2.10;;;;;;;19.83;58.99;101114.03;5088139;28;20210;-71
2021/07/23 04:59:05;;;;;;;2.40;1.80;;;;;;;19.75;57.95;101116.69;5088076;28;20204;-71
2021/07/23 05:01:34;;;;;;;3.40;2.13;;;;;;;19.76;58.57;101131.16;5087778;28;20200;-71
2021/07/23 05:04:03;;;;;;;4.60;1.90;;;;;;;19.61;58.08;101130.84;5088110;28;20196;-72
2021/07/23 05:06:31;;;;;;;4.27;1.90;;;;;;;19.55;57.18;101142.34;5086575;28;20216;-72
2021/07/23 05:09:00;;;;;;;3.17;1.90;;;;;;;19.53;57.06;101144.34;5067259;28;20656;-72
2021/07/23 05:11:28;;;;;;;4.23;1.90;;;;;;;19.54;57.57;101151.50;5081675;28;20197;-71
2021/07/23 05:13:59;;;;;;;3.77;1.80;;;;;;;19.71;57.52;101147.13;5087488;28;20587;-71
2021/07/23 05:16:29;;;;;;;3.30;2.00;;;;;;;19.90;57.07;101152.47;5086460;28;20201;-71
2021/07/23 05:18:58;;;;;;;3.00;1.70;;;;;;;19.98;56.62;101158.00;5076316;28;20531;-72
2021/07/23 05:21:26;;;;;;;3.63;1.83;;;;;;;19.88;57.09;101151.72;5074827;28;20236;-71
2021/07/23 05:23:54;;;;;;;3.30;1.93;;;;;;;20.03;56.36;101165.69;5081528;28;20197;-71
2021/07/23 05:26:22;;;;;;;3.93;1.90;;;;;;;19.75;56.50;101152.13;5076375;28;20676;-71
2021/07/23 05:28:52;;;;;;;3.03;2.20;;;;;;;19.73;57.06;101158.72;5072230;28;20660;-71
2021/07/23 05:31:20;;;;;;;3.27;2.17;;;;;;;19.72;57.06;101165.19;5088827;28;20207;-71
2021/07/23 05:33:50;;;;;;;4.80;2.60;;;;;;;19.68;56.99;101167.38;5073502;28;20216;-71
2021/07/23 05:36:18;;;;;;;4.23;2.00;;;;;;;19.74;56.83;101174.06;5080627;28;20244;-71
2021/07/23 05:38:46;;;;;;;3.50;2.00;;;;;;;19.89;55.96;101172.53;5082123;28;20196;-71
2021/07/23 05:41:14;;;;;;;3.13;2.13;;;;;;;19.93;54.99;101168.50;5081926;28;20253;-71
2021/07/23 05:43:42;;;;;;;5.70;2.20;;;;;;;19.95;54.77;101161.03;5068857;28;20205;-71
2021/07/23 05:46:10;;;;;;;3.67;1.90;;;;;;;20.08;55.36;101172.41;5082750;28;20205;-71
2021/07/23 05:48:39;;;;;;;3.23;1.87;;;;;;;20.33;53.58;101164.47;5087961;28;20193;-71
2021/07/23 05:51:10;;;;;;;6.90;2.07;;;;;;;20.54;53.46;101173.22;5074089;28;20196;-71
2021/07/23 05:53:38;;;;;;;2.33;1.80;;;;;;;20.60;52.10;101182.63;5085772;28;20200;-71
2021/07/23 05:56:07;;;;;;;3.53;1.83;;;;;;;20.51;52.49;101173.53;5074043;28;20197;-71
2021/07/23 05:58:36;;;;;;;2.23;1.67;;;;;;;20.46;52.27;101170.41;5071823;28;20227;-71
2021/07/23 06:01:05;;;;;;;2.23;1.80;;;;;;;20.31;52.42;101183.72;5071962;28;20221;-71
2021/07/23 06:03:35;;;;;;;2.40;1.70;;;;;;;20.35;51.69;101178.81;5072817;28;20209;-71
2021/07/23 06:06:03;;;;;;;4.10;1.80;;;;;;;20.22;51.59;101189.25;5070493;28;20201;-71
2021/07/23 06:08:42;;;;;;;5.53;2.07;;;;;;;20.54;51.60;101197.78;5101668;28;20274;-71
2021/07/23 06:11:10;;;;;;;2.53;1.83;;;;;;;20.80;51.09;101197.78;5091837;28;20185;-71
2021/07/23 06:13:39;;;;;;;7.10;2.07;;;;;;;20.67;50.35;101200.94;5084510;28;20555;-71
2021/07/23 06:16:07;;;;;;;4.57;1.70;;;;;;;20.24;50.78;101209.06;5079464;28;20294;-71
2021/07/23 06:18:36;;;;;;;2.40;1.97;;;;;;;20.14;51.10;101182.69;5090077;28;20278;-71
2021/07/23 06:21:06;;;;;;;3.37;1.70;;;;;;;20.21;51.03;101202.03;5090063;28;20226;-73
2021/07/23 06:23:35;;;;;;;2.47;1.73;;;;;;;20.15;50.05;101211.66;5090809;28;20589;-71
2021/07/23 06:26:05;;;;;;;3.33;2.00;;;;;;;19.86;50.58;101175.56;5091945;28;20200;-71
2021/07/23 06:28:34;;;;;;;3.43;2.00;;;;;;;20.06;50.69;101212.59;5091711;28;20203;-70
2021/07/23 06:31:03;;;;;;;5.80;1.80;;;;;;;20.07;50.62;101203.41;5091927;28;20201;-71
2021/07/23 06:33:31;;;;;;;2.27;1.70;;;;;;;20.09;51.33;101223.22;5091511;28;20189;-71
2021/07/23 06:36:01;;;;;;;3.40;1.80;;;;;;;20.23;50.97;101218.25;5086177;28;20217;-70
2021/07/23 06:38:29;;;;;;;3.30;1.83;;;;;;;20.07;51.38;101187.06;5083089;28;20212;-70
2021/07/23 06:40:58;;;;;;;2.23;1.80;;;;;;;20.53;50.07;101223.34;5091015;28;20193;-71
2021/07/23 06:43:27;;;;;;;3.27;1.93;;;;;;;20.50;50.33;101225.50;5091355;28;20192;-66
2021/07/23 06:45:57;;;;;;;2.03;1.67;;;;;;;20.45;50.80;101212.34;5089644;28;20648;-66
2021/07/23 06:48:25;;;;;;;2.80;1.70;;;;;;;20.48;51.21;101213.91;5090983;28;20201;-66
2021/07/23 06:50:53;;;;;;;3.37;1.80;;;;;;;20.58;50.88;101222.88;5088926;28;20205;-67
2021/07/23 06:53:21;;;;;;;2.80;1.87;;;;;;;20.64;51.39;101228.56;5087835;28;20204;-70
2021/07/23 06:55:49;;;;;;;2.67;1.80;;;;;;;20.91;50.51;101224.00;5089839;28;20216;-70
2021/07/23 06:58:18;;;;;;;4.53;1.97;;;;;;;20.85;50.14;101224.66;5071076;28;20225;-71
2021/07/23 07:00:49;;;;;;;2.63;1.83;;;;;;;20.94;50.04;101229.13;5072591;28;20197;-71
2021/07/23 07:03:17;;;;;;;3.73;1.90;;;;;;;21.27;51.76;101231.09;5071995;28;20538;-71
2021/07/23 07:05:50;;;;;;;1.90;1.70;;;;;;;21.01;49.24;101183.78;5070412;28;20579;-66
2021/07/23 07:08:18;;;;;;;3.07;1.83;;;;;;;21.43;49.23;101224.00;5073019;28;20237;-66
2021/07/23 07:10:46;;;;;;;2.63;1.67;;;;;;;21.46;49.10;101220.97;5087495;28;20255;-67
2021/07/23 07:13:15;;;;;;;4.53;1.90;;;;;;;21.52;51.01;101231.25;5091851;28;20204;-66
2021/07/23 07:15:43;;;;;;;2.57;1.80;;;;;;;21.35;48.63;101224.81;5091454;28;20213;-71
2021/07/23 07:18:12;;;;;;;3.20;1.67;;;;;;;21.25;49.09;101219.47;5091441;28;20555;-71
2021/07/23 07:20:40;;;;;;;2.73;1.87;;;;;;;21.26;49.19;101225.81;5090678;28;20633;-71
2021/07/23 07:23:08;;;;;;;2.40;1.60;;;;;;;21.62;48.84;101221.03;5091727;28;20240;-66
2021/07/23 07:25:38;;;;;;;2.60;1.90;;;;;;;21.67;48.12;101194.06;5077344;28;20193;-66
2021/07/23 07:28:07;;;;;;;4.07;1.90;;;;;;;21.90;47.23;101222.53;5086246;28;20205;-66
2021/07/23 07:30:56;;;;;;;4.20;1.70;;;;;;;22.10;47.76;101228.63;5070854;28;20201;-71
2021/07/23 07:33:28;;;;;;;3.27;1.67;;;;;;;22.13;47.10;101233.75;5083191;28;20192;-70
2021/07/23 07:35:56;;;;;;;2.27;1.83;;;;;;;22.20;46.33;101223.84;5076166;28;20570;-71
2021/07/23 07:38:24;;;;;;;2.73;2.00;;;;;;;22.40;46.57;101227.13;5078719;28;20203;-70
2021/07/23 07:40:52;;;;;;;3.10;2.00;;;;;;;22.57;45.76;101223.38;5073792;28;20623;-70
2021/07/23 07:43:20;;;;;;;3.10;1.93;;;;;;;22.35;46.36;101224.06;5090570;28;20207;-71
2021/07/23 07:45:52;;;;;;;5.67;1.90;;;;;;;22.47;46.98;101225.44;5089791;28;20212;-66
2021/07/23 07:48:21;;;;;;;3.13;1.90;;;;;;;22.60;46.79;101214.81;5091662;28;20200;-66
2021/07/23 07:50:51;;;;;;;2.50;1.90;;;;;;;22.45;46.43;101227.47;5078766;28;20524;-66
2021/07/23 07:53:19;;;;;;;3.07;2.10;;;;;;;22.23;46.32;101195.28;5074914;28;20556;-67
2021/07/23 07:55:47;;;;;;;1.90;1.80;;;;;;;22.46;46.54;101233.81;5070577;28;20223;-66
2021/07/23 07:58:15;;;;;;;2.60;1.80;;;;;;;22.25;46.51;101231.53;5069716;28;20211;-66
2021/07/23 08:00:43;;;;;;;3.00;2.00;;;;;;;22.38;46.60;101240.13;5070634;28;20236;-66
2021/07/23 08:03:12;;;;;;;3.27;2.17;;;;;;;22.50;46.65;101236.03;5076706;28;20749;-66
2021/07/23 08:05:40;;;;;;;3.13;2.00;;;;;;;22.58;47.20;101248.88;5090784;28;20207;-67
2021/07/23 08:08:11;;;;;;;2.47;1.97;;;;;;;21.93;46.38;101167.47;5081711;28;20201;-67
2021/07/23 08:10:45;;;;;;;3.47;2.40;;;;;;;22.26;47.21;101239.59;5072359;28;20276;-67
2021/07/23 08:13:13;;;;;;;2.30;1.80;;;;;;;22.33;47.94;101242.50;5083794;28;20211;-70
2021/07/23 08:15:43;;;;;;;2.83;2.03;;;;;;;22.22;47.10;101234.63;5090616;28;20208;-66
2021/07/23 08:18:14;;;;;;;3.20;1.80;;;;;;;22.37;47.26;101230.22;5074907;28;20544;-67
2021/07/23 08:20:42;;;;;;;3.10;2.10;;;;;;;22.59;47.51;101239.63;5086408;28;20212;-67
2021/07/23 08:23:12;;;;;;;3.67;1.90;;;;;;;22.59;46.70;101235.00;5084697;28;20311;-71
2021/07/23 08:25:40;;;;;;;3.53;2.30;;;;;;;23.00;46.67;101234.19;5088982;28;20207;-71
2021/07/23 08:28:08;;;;;;;3.40;1.93;;;;;;;22.69;45.53;101185.56;5090907;28;20673;-66
2021/07/23 08:30:36;;;;;;;1.60;1.50;;;;;;;22.84;45.75;101243.28;5072874;28;20668;-67
2021/07/23 08:33:04;;;;;;;3.70;2.13;;;;;;;22.69;45.50;101240.34;5080490;28;20211;-65
2021/07/23 08:35:32;;;;;;;3.73;1.93;;;;;;;22.64;45.71;101245.44;5089474;28;20680;-68
2021/07/23 08:38:00;;;;;;;2.80;1.93;;;;;;;22.74;46.21;101245.31;5079073;28;20821;-67
2021/07/23 08:40:30;;;;;;;4.40;2.40;;;;;;;22.52;46.44;101239.47;5075974;28;20211;-72
2021/07/23 08:42:58;;;;;;;2.03;1.80;;;;;;;22.55;46.21;101202.66;5090821;28;20204;-72
2021/07/23 08:45:26;;;;;;;2.73;2.10;;;;;;;23.03;45.85;101237.44;5076744;28;20560;-72
2021/07/23 08:47:56;;;;;;;5.27;2.00;;;;;;;23.40;45.45;101249.72;5084019;28;20677;-72
2021/07/23 08:50:25;;;;;;;2.87;1.97;;;;;;;23.72;46.07;101257.88;5082325;28;20199;-66
2021/07/23 08:52:55;;;;;;;4.70;2.17;;;;;;;23.70;43.05;101243.47;5083910;28;20208;-71
2021/07/23 08:55:24;;;;;;;4.60;1.90;;;;;;;23.88;44.57;101239.63;5089877;28;20196;-71
2021/07/23 08:57:54;;;;;;;3.67;1.90;;;;;;;23.94;43.84;101245.28;5075820;28;20212;-67
2021/07/23 09:00:23;;;;;;;4.40;1.87;;;;;;;24.31;44.66;101244.59;5090511;28;20212;-67
2021/07/23 09:02:53;;;;;;;4.17;2.20;;;;;;;24.07;41.75;101203.50;5087299;28;20205;-67
2021/07/23 09:05:23;;;;;;;4.17;1.93;;;;;;;24.52;42.57;101251.31;5070091;28;20219;-66
2021/07/23 09:07:51;;;;;;;3.33;1.80;;;;;;;24.84;42.24;101242.81;5079374;28;20207;-66
2021/07/23 09:10:27;;;;;;;3.20;1.90;;;;;;;24.77;41.71;101217.94;5076280;28;20209;-66
2021/07/23 09:13:00;;;;;;;3.90;2.25;;;;;;;24.92;41.33;101242.75;5070219;28;20189;-67
2021/07/23 09:15:30;;;;;;;2.95;2.00;;;;;;;25.43;41.38;101240.22;5076229;28;20684;-67
2021/07/23 09:17:58;;;;;;;4.70;2.33;;;;;;;25.51;40.36;101231.88;5077216;28;20194;-67
2021/07/23 09:20:28;;;;;;;3.20;2.15;;;;;;;25.48;40.85;101237.75;5088118;28;20390;-67
2021/07/23 09:22:59;;;;;;;2.20;1.80;;;;;;;26.02;39.83;101240.22;5088377;28;20236;-68
2021/07/23 09:25:42;;;;;;;2.22;1.90;;;;;;;25.63;39.38;101246.84;5087965;28;20207;-67
2021/07/23 09:28:26;;;;;;;3.22;1.98;;;;;;;25.78;38.74;101240.53;5089749;28;20228;-66
2021/07/23 09:30:55;;;;;;;2.55;1.55;;;;;;;25.84;39.80;101242.50;5081197;28;20223;-66
2021/07/23 09:33:26;;;;;;;2.38;1.92;;;;;;;26.33;39.39;101230.78;5093404;28;20235;-67
2021/07/23 09:35:55;;;;;;;2.67;1.90;;;;;;;26.63;38.87;101229.66;5086770;28;20220;-68
2021/07/23 09:38:25;;;;;;;3.13;2.28;;;;;;;26.99;38.23;101239.81;5072273;28;20292;-68
2021/07/23 09:40:53;;;;;;;3.08;2.10;;;;;;;27.42;38.10;101230.34;5079148;28;20280;-68
2021/07/23 09:43:34;;;;;;;2.20;1.80;;;;;;;27.86;35.41;101231.91;5093447;28;20201;-68
2021/07/23 09:46:24;;;;;;;3.47;1.80;;;;;;;27.40;36.16;101235.22;5078373;28;20585;-68
2021/07/23 09:48:54;;;;;;;3.90;2.08;;;;;;;27.29;37.42;101240.47;5074366;28;20205;-68
2021/07/23 09:51:25;;;;;;;2.92;1.67;;;;;;;27.58;36.17;101233.84;5093574;28;20193;-68
2021/07/23 09:53:55;;;;;;;7.30;2.22;;;;;;;27.00;36.40;101238.75;5091186;28;20208;-68
2021/07/23 09:56:25;;;;;;;4.28;1.67;;;;;;;27.57;36.06;101238.53;5093109;28;20684;-67
2021/07/23 09:59:02;;;;;;;2.70;2.00;;;;;;;28.00;35.67;101241.09;5079811;28;20208;-67
2021/07/23 10:01:36;;;;;;;4.10;1.85;;;;;;;28.31;35.78;101212.97;5086011;28;20364;-67
2021/07/23 10:04:10;;;;;;;3.15;2.13;;;;;;;28.92;36.34;101223.94;5092823;28;20257;-67
2021/07/23 10:06:48;;;;;;;2.20;1.92;;;;;;;29.38;35.63;101219.19;5085950;28;20200;-67
2021/07/23 10:09:23;;;;;;;3.03;1.90;;;;;;;29.44;33.68;101228.59;5092565;28;20192;-67
2021/07/23 10:11:51;;;;;;;3.90;2.00;;;;;;;28.87;34.27;101226.50;5093290;28;20208;-68
2021/07/23 10:14:26;;;;;;;2.67;2.20;;;;;;;28.67;33.97;101238.34;5093253;28;20204;-68
2021/07/23 10:16:54;;;;;;;3.03;2.10;;;;;;;28.57;34.49;101235.16;5078222;28;21447;-67
2021/07/23 10:19:23;;;;;;;4.18;2.50;;;;;;;28.01;34.61;101215.19;5087538;28;20208;-68
2021/07/23 10:21:56;;;;;;;2.92;2.10;;;;;;;27.74;34.49;101223.34;5075442;28;20228;-68
2021/07/23 10:24:26;;;;;;;3.15;2.10;;;;;;;28.15;35.20;101225.22;5090012;28;20243;-67
2021/07/23 10:26:54;;;;;;;2.78;1.92;;;;;;;28.04;35.12;101225.81;5092630;28;20192;-68
2021/07/23 10:29:47;;;;;;;2.70;1.75;;;;;;;28.88;33.90;101228.19;5092813;28;20204;-66
2021/07/23 10:32:35;;;;;;;2.17;1.90;;;;;;;29.18;35.30;101239.69;5087893;28;20216;-67
2021/07/23 10:35:30;;;;;;;4.40;1.85;;;;;;;29.33;34.01;101227.28;5081887;28;20208;-67
2021/07/23 10:37:59;;;;;;;3.20;2.20;;;;;;;29.38;34.15;101229.41;5072436;28;20225;-67
2021/07/23 10:40:40;;;;;;;2.20;1.98;;;;;;;29.21;34.17;101208.81;5087150;28;20209;-67
2021/07/23 10:43:33;;;;;;;2.95;2.15;;;;;;;29.10;35.52;101220.53;5077464;28;20624;-67
2021/07/23 10:46:04;;;;;;;2.88;1.80;;;;;;;29.57;34.22;101222.16;5083798;28;20288;-67
2021/07/23 10:48:47;;;;;;;3.40;2.15;;;;;;;29.99;34.89;101195.78;5091611;28;20193;-67
2021/07/23 10:51:50;;;;;;;3.25;2.47;;;;;;;30.57;34.93;101207.63;5091156;28;20602;-67
2021/07/23 10:54:18;;;;;;;4.78;1.98;;;;;;;30.32;33.43;101215.06;5082261;28;20188;-67
2021/07/23 10:57:12;;;;;;;2.35;2.00;;;;;;;29.75;33.51;101211.25;5091843;28;20641;-67
2021/07/23 10:59:51;;;;;;;2.20;2.00;;;;;;;29.97;33.83;101201.56;5091402;28;20200;-67
2021/07/23 11:02:47;;;;;;;3.42;1.90;;;;;;;30.64;33.20;101212.34;5089957;28;20224;-67
2021/07/23 11:05:21;;;;;;;2.97;2.10;;;;;;;30.96;33.56;101202.88;5091722;28;20201;-68
2021/07/23 11:07:49;;;;;;;2.67;1.90;;;;;;;30.76;33.14;101204.97;5084155;28;20224;-67
2021/07/23 11:10:21;;;;;;;3.53;2.10;;;;;;;31.16;33.59;101195.25;5084058;28;20230;-67
2021/07/23 11:12:49;;;;;;;4.05;2.33;;;;;;;31.20;32.98;101192.84;5092075;28;20213;-67
2021/07/23 11:15:18;;;;;;;2.10;1.85;;;;;;;30.51;31.43;101188.28;5091306;28;20192;-67
2021/07/23 11:17:51;;;;;;;4.90;2.08;;;;;;;29.23;31.04;101159.63;5091870;28;20216;-66
2021/07/23 11:20:38;;;;;;;2.95;1.95;;;;;;;28.07;32.37;101186.72;5091995;28;20661;-67
2021/07/23 11:23:07;;;;;;;4.13;2.28;;;;;;;27.96;33.60;101193.72;5092073;28;20624;-67
2021/07/23 11:25:38;;;;;;;3.13;1.90;;;;;;;28.79;34.96;101187.97;5088344;28;20224;-68
2021/07/23 11:28:08;;;;;;;2.83;1.80;;;;;;;28.69;33.72;101185.59;5071676;28;20936;-66
2021/07/23 11:30:37;;;;;;;3.85;2.17;;;;;;;28.11;32.90;101175.06;5075972;28;20200;-66
2021/07/23 11:33:08;;;;;;;3.83;2.28;;;;;;;27.69;33.97;101178.09;5091983;28;20201;-66
2021/07/23 11:35:41;;;;;;;4.60;2.47;;;;;;;28.32;35.32;101173.22;5076465;28;20575;-66
2021/07/23 11:38:13;;;;;;;8.32;2.30;;;;;;;28.72;35.88;101180.47;5080744;28;20317;-66
2021/07/23 11:40:41;;;;;;;2.38;1.90;;;;;;;28.79;35.65;101185.19;5089198;28;20576;-67
2021/07/23 11:43:19;;;;;;;6.38;1.90;;;;;;;29.25;34.64;101180.47;5085202;28;20288;-66
2021/07/23 11:45:48;;;;;;;2.80;1.92;;;;;;;29.73;35.84;101171.00;5087518;28;20319;-67